Time;durP1;ratioP1;P1;durP2;ratioP2;P2;SDS_P1;SDS_P2;PMS_P1;PMS_P2;Temp;Humidity;BMP_temperature;BMP_pressure;BME280_temperature;BME280_humidity;BME280_pressure;Samples;Min_cycle;Max_cycle;Signal;HPM_P1;HPM_P2
2021/12/02 00:00:17;;;;;;;5.53;1.02;;;6.80;99.90;;;;;;5074461;28;20456;-73
2021/12/02 00:02:43;;;;;;;7.55;0.90;;;6.80;99.90;;;;;;5089711;28;20054;-71
2021/12/02 00:05:09;;;;;;;2.85;0.63;;;6.80;99.90;;;;;;5092940;28;20035;-71
2021/12/02 00:07:34;;;;;;;6.47;0.80;;;6.70;99.90;;;;;;5092988;28;20024;-74
2021/12/02 00:10:01;;;;;;;3.25;0.60;;;6.60;99.90;;;;;;5093033;28;20024;-71
2021/12/02 00:12:26;;;;;;;3.70;0.63;;;6.50;99.90;;;;;;5093502;28;20043;-71
2021/12/02 00:14:53;;;;;;;5.55;1.50;;;6.50;99.90;;;;;;5092306;28;20028;-73
2021/12/02 00:17:24;;;;;;;4.85;0.55;;;6.40;99.90;;;;;;5093203;28;20081;-72
2021/12/02 00:23:02;;;;;;;4.32;0.73;;;6.40;99.90;;;;;;5082793;28;20078;-74
2021/12/02 00:25:28;;;;;;;10.10;1.70;;;6.40;99.90;;;;;;5089372;28;20456;-71
2021/12/02 00:27:56;;;;;;;10.45;1.38;;;6.40;99.90;;;;;;5100994;28;20038;-74
2021/12/02 00:30:21;;;;;;;6.75;1.27;;;6.40;99.90;;;;;;5092466;28;20024;-72
2021/12/02 00:32:48;;;;;;;9.57;2.30;;;6.50;99.90;;;;;;5092514;28;20039;-72
2021/12/02 00:35:16;;;;;;;6.97;1.95;;;6.50;99.90;;;;;;5092559;28;20093;-74
2021/12/02 00:37:43;;;;;;;13.40;3.53;;;6.60;99.90;;;;;;5073030;28;20046;-75
2021/12/02 00:40:09;;;;;;;14.20;2.50;;;6.70;99.90;;;;;;5093130;28;20103;-71
2021/12/02 00:42:35;;;;;;;10.05;1.85;;;6.80;99.90;;;;;;5091704;28;20127;-74
2021/12/02 00:45:03;;;;;;;7.35;1.63;;;6.80;99.90;;;;;;5092678;28;20456;-74
2021/12/02 00:47:29;;;;;;;9.88;1.98;;;6.80;99.90;;;;;;5092424;28;20112;-74
2021/12/02 00:49:55;;;;;;;11.68;1.75;;;6.80;99.90;;;;;;5092388;28;20035;-74
2021/12/02 00:52:21;;;;;;;9.07;1.70;;;6.80;99.90;;;;;;5092546;28;20438;-71
2021/12/02 00:54:48;;;;;;;9.90;1.80;;;6.80;99.90;;;;;;5092536;28;20478;-75
2021/12/02 00:57:13;;;;;;;9.55;1.40;;;6.80;99.90;;;;;;5092135;28;20024;-74
2021/12/02 00:59:40;;;;;;;7.22;1.00;;;6.80;99.90;;;;;;5092806;28;20157;-73
2021/12/02 01:02:08;;;;;;;2.67;0.47;;;6.80;99.90;;;;;;5106243;28;20040;-73
2021/12/02 01:04:34;;;;;;;6.53;1.20;;;6.80;99.90;;;;;;5112880;28;20032;-74
2021/12/02 01:07:00;;;;;;;4.82;0.73;;;6.80;99.90;;;;;;5094641;28;20028;-76
2021/12/02 01:09:26;;;;;;;6.60;1.20;;;6.80;99.90;;;;;;5113210;28;20027;-74
2021/12/02 01:11:54;;;;;;;6.07;1.20;;;6.80;99.90;;;;;;5113097;28;20024;-74
2021/12/02 01:14:20;;;;;;;9.23;1.13;;;6.70;99.90;;;;;;5112014;28;20027;-73
2021/12/02 01:16:46;;;;;;;7.20;1.45;;;6.60;99.90;;;;;;5112281;28;20027;-71
2021/12/02 01:19:12;;;;;;;9.95;2.05;;;6.40;99.90;;;;;;5112042;28;20032;-76
2021/12/02 01:21:39;;;;;;;8.07;1.45;;;6.40;99.90;;;;;;5112131;28;20019;-75
2021/12/02 01:24:09;;;;;;;6.65;1.13;;;6.30;99.90;;;;;;5111972;28;20051;-77
2021/12/02 01:26:35;;;;;;;5.10;0.95;;;6.20;99.90;;;;;;5112786;28;20026;-76
2021/12/02 01:29:02;;;;;;;8.27;1.00;;;6.10;99.90;;;;;;5112675;28;20036;-76
2021/12/02 01:31:36;;;;;;;6.32;0.82;;;6.10;99.90;;;;;;5093866;28;20395;-75
2021/12/02 01:34:07;;;;;;;4.38;0.82;;;6.10;99.90;;;;;;5116558;28;20130;-74
2021/12/02 01:36:39;;;;;;;4.45;0.60;;;6.00;99.90;;;;;;5116274;28;20429;-71
2021/12/02 01:39:06;;;;;;;7.60;1.00;;;6.00;99.90;;;;;;5116857;28;20028;-72
2021/12/02 01:41:45;;;;;;;3.95;0.80;;;6.00;99.90;;;;;;5116822;28;20111;-73
2021/12/02 01:44:12;;;;;;;1.95;0.75;;;6.00;99.90;;;;;;5115942;28;20524;-75
2021/12/02 01:46:39;;;;;;;2.60;0.75;;;5.90;99.90;;;;;;5116415;28;20032;-72
2021/12/02 01:49:05;;;;;;;4.00;0.80;;;5.90;99.90;;;;;;5116223;28;20034;-72
2021/12/02 01:51:38;;;;;;;5.82;0.93;;;5.80;99.90;;;;;;5115483;28;20482;-74
2021/12/02 01:54:17;;;;;;;5.95;1.88;;;5.80;99.90;;;;;;5115074;28;21271;-72
2021/12/02 01:56:47;;;;;;;4.72;0.52;;;5.80;99.90;;;;;;5116100;28;20478;-71
2021/12/02 01:59:17;;;;;;;5.90;1.40;;;5.70;99.90;;;;;;5115473;28;20494;-73
2021/12/02 02:01:45;;;;;;;5.40;1.10;;;5.70;99.90;;;;;;5115542;28;20093;-75
2021/12/02 02:04:11;;;;;;;6.38;0.80;;;5.80;99.90;;;;;;5115657;28;20101;-73
2021/12/02 02:06:40;;;;;;;5.47;0.90;;;5.80;99.90;;;;;;5116007;28;20102;-73
2021/12/02 02:09:07;;;;;;;3.22;0.57;;;5.90;99.90;;;;;;5115444;28;20038;-74
2021/12/02 02:11:33;;;;;;;1.70;1.23;;;5.80;99.90;;;;;;5116132;28;20107;-74
2021/12/02 02:14:00;;;;;;;4.85;0.65;;;5.90;99.90;;;;;;5097482;28;20605;-73
2021/12/02 02:16:28;;;;;;;7.40;0.70;;;5.80;99.90;;;;;;5096579;28;20103;-77
2021/12/02 02:18:54;;;;;;;6.03;0.68;;;5.80;99.90;;;;;;5097017;28;20020;-72
2021/12/02 02:21:22;;;;;;;9.88;1.00;;;5.70;99.90;;;;;;5115703;28;20102;-71
2021/12/02 02:24:11;;;;;;;4.25;0.90;;;5.70;99.90;;;;;;5114852;28;20439;-76
2021/12/02 02:26:37;;;;;;;3.75;0.60;;;5.60;99.90;;;;;;5113830;28;20035;-72
2021/12/02 02:29:05;;;;;;;11.73;1.52;;;5.60;99.90;;;;;;5115368;28;20073;-76
2021/12/02 02:31:33;;;;;;;9.93;1.67;;;5.60;99.90;;;;;;5115711;28;20019;-71
2021/12/02 02:33:59;;;;;;;11.45;2.15;;;5.70;99.90;;;;;;5114976;28;20423;-74
2021/12/02 02:36:31;;;;;;;6.63;1.30;;;5.70;99.90;;;;;;5115220;28;20027;-73
2021/12/02 02:38:58;;;;;;;12.32;2.50;;;5.70;99.90;;;;;;5114925;28;20105;-74
2021/12/02 02:41:38;;;;;;;6.97;1.13;;;5.70;99.90;;;;;;5115502;28;20107;-75
2021/12/02 02:44:05;;;;;;;8.55;1.45;;;5.70;99.90;;;;;;5114867;28;20020;-72
2021/12/02 02:46:32;;;;;;;11.57;1.75;;;5.60;99.90;;;;;;5096791;28;20055;-72
2021/12/02 02:49:00;;;;;;;9.20;1.35;;;5.60;99.90;;;;;;5095280;28;20417;-71
2021/12/02 02:51:29;;;;;;;8.23;1.23;;;5.50;99.90;;;;;;5094395;28;20512;-73
2021/12/02 02:53:57;;;;;;;10.20;1.10;;;5.50;99.90;;;;;;5113186;28;20050;-73
2021/12/02 02:56:27;;;;;;;7.78;1.20;;;5.40;99.90;;;;;;5113792;28;20049;-73
2021/12/02 02:59:05;;;;;;;5.70;1.60;;;5.40;99.90;;;;;;5114297;28;20379;-73
2021/12/02 03:01:52;;;;;;;5.03;0.82;;;5.30;99.90;;;;;;5114089;28;20040;-72
2021/12/02 03:07:05;;;;;;;6.47;1.00;;;5.30;99.90;;;;;;5114488;28;20027;-72
2021/12/02 03:12:20;;;;;;;8.23;0.93;;;5.40;99.90;;;;;;5114154;28;20024;-75
2021/12/02 03:17:41;;;;;;;9.10;1.33;;;5.30;99.90;;;;;;5097836;28;20039;-76
2021/12/02 03:20:07;;;;;;;7.65;0.80;;;5.30;99.90;;;;;;5114253;28;20034;-76
2021/12/02 03:22:34;;;;;;;7.03;0.98;;;5.30;99.90;;;;;;5094131;28;20532;-74
2021/12/02 03:25:00;;;;;;;5.65;0.90;;;5.40;99.90;;;;;;5113302;28;20102;-73
2021/12/02 03:27:26;;;;;;;7.82;1.30;;;5.40;99.90;;;;;;5113731;28;20062;-74
2021/12/02 03:29:52;;;;;;;6.55;1.27;;;5.40;99.90;;;;;;5114130;28;20039;-70
2021/12/02 03:32:17;;;;;;;5.75;0.70;;;5.40;99.90;;;;;;5113281;28;20036;-76
2021/12/02 03:34:43;;;;;;;5.45;0.88;;;5.50;99.90;;;;;;5095692;28;20043;-75
2021/12/02 03:37:09;;;;;;;8.43;1.08;;;5.50;99.90;;;;;;5114268;28;20073;-74
2021/12/02 03:39:35;;;;;;;4.68;0.52;;;5.50;99.90;;;;;;5114253;28;20023;-72
2021/12/02 03:42:01;;;;;;;5.43;0.70;;;5.50;99.90;;;;;;5113421;28;20058;-73
2021/12/02 03:44:27;;;;;;;4.18;0.68;;;5.50;99.90;;;;;;5114098;28;20070;-71
2021/12/02 03:46:53;;;;;;;3.03;0.55;;;5.50;99.90;;;;;;5114189;28;20077;-75
2021/12/02 03:49:20;;;;;;;3.63;1.17;;;5.50;99.90;;;;;;5113885;28;20111;-72
2021/12/02 03:51:46;;;;;;;2.00;0.60;;;5.60;99.90;;;;;;5113671;28;20027;-71
2021/12/02 03:54:11;;;;;;;5.32;1.52;;;5.70;99.90;;;;;;5113272;28;20043;-75
2021/12/02 03:56:37;;;;;;;9.13;1.20;;;5.70;99.90;;;;;;5111925;28;20038;-72
2021/12/02 03:59:03;;;;;;;6.03;0.75;;;5.80;99.90;;;;;;5095240;28;20490;-75
2021/12/02 04:01:28;;;;;;;5.55;0.80;;;5.80;99.90;;;;;;5113510;28;20044;-75
2021/12/02 04:03:54;;;;;;;2.30;0.70;;;5.80;99.90;;;;;;5113879;28;20141;-75
2021/12/02 04:06:20;;;;;;;1.92;0.68;;;5.80;99.90;;;;;;5113535;28;20062;-74
2021/12/02 04:08:52;;;;;;;2.88;0.77;;;5.70;99.90;;;;;;5113801;28;20132;-72
2021/12/02 04:17:28;;;;;;;7.97;1.85;;;5.60;99.90;;;;;;5113646;28;20041;-74
2021/12/02 04:19:37;;;;;;;11.27;0.88;;;5.50;99.90;;;;;;5107828;28;20039;-73
2021/12/02 04:22:03;;;;;;;4.68;0.68;;;5.50;99.90;;;;;;5113065;28;20036;-72
2021/12/02 04:24:29;;;;;;;7.05;1.10;;;5.40;99.90;;;;;;5113481;28;20110;-74
2021/12/02 04:26:55;;;;;;;7.45;1.05;;;5.40;99.90;;;;;;5112169;28;20122;-75
2021/12/02 04:29:23;;;;;;;6.78;1.00;;;5.40;99.90;;;;;;5113871;28;20047;-73
2021/12/02 04:31:50;;;;;;;2.42;0.52;;;5.40;99.90;;;;;;5112713;28;20043;-74
2021/12/02 04:34:16;;;;;;;9.77;0.80;;;5.40;99.90;;;;;;5113149;28;20035;-74
2021/12/02 04:36:43;;;;;;;5.30;0.73;;;5.40;99.90;;;;;;5112417;28;20020;-72
2021/12/02 04:39:09;;;;;;;7.35;1.30;;;5.40;99.90;;;;;;5113156;28;20035;-70
2021/12/02 04:41:35;;;;;;;5.55;0.70;;;5.40;99.90;;;;;;5113057;28;20031;-72
2021/12/02 04:44:01;;;;;;;7.95;1.20;;;5.40;99.90;;;;;;5112211;28;20076;-75
2021/12/02 04:46:26;;;;;;;9.43;1.48;;;5.50;99.90;;;;;;5112467;28;20103;-75
2021/12/02 04:48:52;;;;;;;13.50;1.40;;;5.60;99.90;;;;;;5094857;28;20119;-76
2021/12/02 04:51:17;;;;;;;7.95;1.42;;;5.70;99.90;;;;;;5113166;28;20035;-76
2021/12/02 04:53:43;;;;;;;7.28;1.70;;;5.70;99.90;;;;;;5095455;28;20401;-75
2021/12/02 04:56:11;;;;;;;6.82;1.08;;;5.60;99.90;;;;;;5112373;28;20463;-72
2021/12/02 04:58:37;;;;;;;7.72;1.13;;;5.60;99.90;;;;;;5112061;28;20077;-73
2021/12/02 05:01:02;;;;;;;9.57;1.50;;;5.40;99.90;;;;;;5112943;28;20119;-71
2021/12/02 05:03:28;;;;;;;9.43;1.42;;;5.40;99.90;;;;;;5113372;28;20035;-70
2021/12/02 05:05:54;;;;;;;9.43;1.02;;;5.30;99.90;;;;;;5112223;28;20102;-74
2021/12/02 05:08:19;;;;;;;7.85;1.75;;;5.20;99.90;;;;;;5115404;28;20085;-75
2021/12/02 05:10:45;;;;;;;7.13;1.63;;;5.10;99.90;;;;;;5116079;28;20043;-73
2021/12/02 05:13:10;;;;;;;6.88;1.30;;;5.10;99.90;;;;;;5117339;28;20031;-73
2021/12/02 05:15:36;;;;;;;8.27;1.33;;;5.00;99.90;;;;;;5116514;28;20024;-74
2021/12/02 05:18:02;;;;;;;12.95;1.70;;;5.00;99.90;;;;;;5098096;28;20390;-75
2021/12/02 05:20:27;;;;;;;13.73;1.65;;;5.00;99.90;;;;;;5097916;28;20028;-72
2021/12/02 05:22:53;;;;;;;15.10;2.35;;;5.00;99.90;;;;;;5116242;28;20085;-73
2021/12/02 05:25:19;;;;;;;10.15;2.03;;;5.10;99.90;;;;;;5117043;28;20070;-72
2021/12/02 05:27:44;;;;;;;14.60;2.28;;;5.10;99.90;;;;;;5116793;28;20039;-74
2021/12/02 05:30:11;;;;;;;11.95;1.77;;;5.10;99.90;;;;;;5116327;28;20429;-74
2021/12/02 05:32:37;;;;;;;9.65;1.58;;;5.10;99.90;;;;;;5116145;28;20071;-73
2021/12/02 05:35:03;;;;;;;10.05;1.80;;;5.10;99.90;;;;;;5117281;28;20047;-73
2021/12/02 05:37:29;;;;;;;9.98;1.35;;;5.10;99.90;;;;;;5116079;28;20110;-73
2021/12/02 05:39:54;;;;;;;12.00;3.20;;;5.10;99.90;;;;;;5115989;28;20214;-74
2021/12/02 05:42:20;;;;;;;11.30;1.58;;;5.10;99.90;;;;;;5115893;28;20486;-71
2021/12/02 05:44:46;;;;;;;7.03;1.30;;;5.10;99.90;;;;;;5116683;28;20026;-75
2021/12/02 05:47:12;;;;;;;8.65;1.20;;;5.10;99.90;;;;;;5116175;28;20447;-74
2021/12/02 05:49:37;;;;;;;11.35;1.25;;;5.10;99.90;;;;;;5116334;28;20042;-72
2021/12/02 05:52:03;;;;;;;11.43;1.40;;;5.10;99.90;;;;;;5115759;28;20027;-72
2021/12/02 05:54:29;;;;;;;5.93;1.23;;;5.10;99.90;;;;;;5116409;28;20031;-72
2021/12/02 05:56:55;;;;;;;1.63;0.50;;;5.00;99.90;;;;;;5115998;28;20084;-71
2021/12/02 05:59:20;;;;;;;5.78;1.02;;;5.00;99.90;;;;;;5116455;28;20096;-74
2021/12/02 06:01:47;;;;;;;6.40;0.80;;;4.90;99.90;;;;;;5115392;28;20047;-73
2021/12/02 06:04:13;;;;;;;2.65;0.77;;;4.90;99.90;;;;;;5116213;28;20121;-74
2021/12/02 06:06:40;;;;;;;5.72;0.90;;;4.90;99.90;;;;;;5097083;28;20482;-72
2021/12/02 06:09:06;;;;;;;6.25;1.13;;;4.90;99.90;;;;;;5115194;28;20580;-72
2021/12/02 06:11:32;;;;;;;8.07;1.00;;;4.90;99.90;;;;;;5097877;28;20123;-72
2021/12/02 06:13:57;;;;;;;5.82;1.10;;;4.90;99.90;;;;;;5115700;28;20044;-70
2021/12/02 06:16:23;;;;;;;4.28;0.80;;;4.90;99.90;;;;;;5097133;28;20023;-72
2021/12/02 06:18:49;;;;;;;9.85;1.63;;;4.90;99.90;;;;;;5114821;28;20051;-72
2021/12/02 06:21:14;;;;;;;7.13;1.50;;;5.00;99.90;;;;;;5115900;28;20431;-72
2021/12/02 06:23:41;;;;;;;9.38;1.50;;;5.00;99.90;;;;;;5114851;28;20015;-72
2021/12/02 06:26:08;;;;;;;6.60;1.00;;;5.10;99.90;;;;;;5096743;28;20434;-73
2021/12/02 06:28:34;;;;;;;3.50;0.95;;;5.20;99.90;;;;;;5115317;28;20063;-71
2021/12/02 06:31:02;;;;;;;6.85;2.00;;;5.30;99.90;;;;;;5115618;28;20055;-73
2021/12/02 06:33:29;;;;;;;9.48;1.27;;;5.30;99.90;;;;;;5114247;28;20066;-74
2021/12/02 06:35:55;;;;;;;8.02;1.63;;;5.30;99.90;;;;;;5115168;28;20049;-71
2021/12/02 06:38:20;;;;;;;3.30;1.02;;;5.20;99.90;;;;;;5114451;28;20028;-75
2021/12/02 06:40:46;;;;;;;4.22;1.40;;;5.20;99.90;;;;;;5115345;28;20106;-75
2021/12/02 06:43:15;;;;;;;4.30;0.90;;;5.10;99.90;;;;;;5114745;28;20517;-74
2021/12/02 06:45:41;;;;;;;1.63;0.68;;;5.10;99.90;;;;;;5096949;28;20474;-74
2021/12/02 06:48:07;;;;;;;8.73;1.40;;;5.00;99.90;;;;;;5097157;28;20106;-73
2021/12/02 06:50:34;;;;;;;5.55;0.70;;;5.00;99.90;;;;;;5115369;28;20078;-72
2021/12/02 06:53:00;;;;;;;7.07;1.70;;;5.00;99.90;;;;;;5114923;28;20032;-71
2021/12/02 06:55:26;;;;;;;12.90;1.67;;;5.00;99.90;;;;;;5115302;28;20088;-74
2021/12/02 06:57:52;;;;;;;3.95;0.82;;;5.10;99.90;;;;;;5114754;28;20519;-74
2021/12/02 07:00:20;;;;;;;7.28;1.00;;;4.90;99.90;;;;;;5114231;28;20035;-74
2021/12/02 07:02:47;;;;;;;6.25;1.10;;;4.70;99.90;;;;;;5114624;28;20051;-75
2021/12/02 07:05:17;;;;;;;6.05;1.52;;;4.60;99.90;;;;;;5111447;28;20027;-75
2021/12/02 07:07:43;;;;;;;6.53;2.33;;;4.40;99.90;;;;;;5095492;28;20471;-76
2021/12/02 07:10:14;;;;;;;9.43;1.75;;;4.40;99.90;;;;;;5114672;28;20023;-73
2021/12/02 07:12:42;;;;;;;7.57;2.00;;;4.30;99.90;;;;;;5087894;28;20028;-71
2021/12/02 07:15:14;;;;;;;11.25;1.80;;;4.20;99.90;;;;;;5095789;28;20024;-71
2021/12/02 07:17:40;;;;;;;9.85;1.63;;;4.20;99.90;;;;;;5113853;28;20098;-72
2021/12/02 07:20:07;;;;;;;10.18;1.70;;;4.20;99.90;;;;;;5113425;28;20141;-71
2021/12/02 07:22:35;;;;;;;14.80;2.10;;;4.20;99.90;;;;;;5113738;28;20051;-75
2021/12/02 07:25:01;;;;;;;7.22;1.52;;;4.20;99.90;;;;;;5114272;28;20104;-74
2021/12/02 07:27:27;;;;;;;9.30;1.65;;;4.20;99.90;;;;;;5113979;28;20028;-71
2021/12/02 07:29:56;;;;;;;7.97;1.60;;;4.20;99.90;;;;;;5114590;28;20019;-75
2021/12/02 07:32:26;;;;;;;7.82;1.60;;;4.20;99.90;;;;;;5114482;28;20053;-72
2021/12/02 07:34:52;;;;;;;7.57;1.85;;;4.30;99.90;;;;;;5114168;28;20028;-72
2021/12/02 07:37:18;;;;;;;6.03;1.67;;;4.30;99.90;;;;;;5113761;28;20027;-74
2021/12/02 07:39:45;;;;;;;11.10;1.60;;;4.30;99.90;;;;;;5113080;28;20527;-72
2021/12/02 07:42:11;;;;;;;8.02;1.42;;;4.30;99.90;;;;;;5114347;28;20028;-73
2021/12/02 07:44:37;;;;;;;6.80;1.65;;;4.30;99.90;;;;;;5094868;28;20085;-73
2021/12/02 07:47:05;;;;;;;10.35;2.22;;;4.40;99.90;;;;;;5112717;28;20024;-74
2021/12/02 07:49:31;;;;;;;9.63;1.75;;;4.40;99.90;;;;;;5096175;28;20102;-75
2021/12/02 07:52:01;;;;;;;4.60;0.82;;;4.50;99.90;;;;;;5113606;28;20107;-75
2021/12/02 07:54:31;;;;;;;2.85;0.98;;;4.40;99.90;;;;;;5113010;28;20019;-75
2021/12/02 07:56:58;;;;;;;5.72;1.55;;;4.30;99.90;;;;;;5112894;28;20022;-72
2021/12/02 07:59:24;;;;;;;7.38;1.58;;;4.10;99.90;;;;;;5095733;28;20035;-73
2021/12/02 08:01:49;;;;;;;5.85;1.42;;;4.00;99.90;;;;;;5093724;28;20043;-76
2021/12/02 08:04:15;;;;;;;8.70;1.35;;;3.90;99.90;;;;;;5113454;27;20395;-76
2021/12/02 08:06:41;;;;;;;5.85;1.50;;;3.90;99.90;;;;;;5126682;27;20471;-75
2021/12/02 08:09:10;;;;;;;13.70;2.00;;;3.90;99.90;;;;;;5107181;28;20039;-75
2021/12/02 08:11:36;;;;;;;11.23;2.22;;;4.00;99.90;;;;;;5112776;28;20023;-72
2021/12/02 08:14:02;;;;;;;5.70;1.92;;;4.10;99.90;;;;;;5113133;28;20036;-75
2021/12/02 08:16:28;;;;;;;5.45;2.05;;;4.10;99.90;;;;;;5113403;28;20023;-73
2021/12/02 08:18:54;;;;;;;12.77;2.25;;;4.20;99.90;;;;;;5095272;28;20395;-72
2021/12/02 08:21:19;;;;;;;12.02;2.30;;;4.20;99.90;;;;;;5113149;28;20048;-74
2021/12/02 08:23:45;;;;;;;4.07;1.33;;;4.30;99.90;;;;;;5113753;28;20074;-71
2021/12/02 08:26:13;;;;;;;7.15;2.17;;;4.40;99.90;;;;;;5112734;28;20024;-73
2021/12/02 08:28:38;;;;;;;9.13;1.67;;;4.50;99.90;;;;;;5113507;28;20020;-73
2021/12/02 08:31:04;;;;;;;8.10;1.60;;;4.50;99.90;;;;;;5113834;28;20085;-73
2021/12/02 08:33:30;;;;;;;17.13;2.90;;;4.60;99.90;;;;;;5113522;28;20028;-75
2021/12/02 08:35:56;;;;;;;13.10;2.50;;;4.60;99.90;;;;;;5113319;28;20387;-73
2021/12/02 08:38:30;;;;;;;14.15;3.15;;;4.70;99.90;;;;;;5113731;28;20019;-73
2021/12/02 08:40:58;;;;;;;6.55;1.38;;;4.70;99.90;;;;;;5095027;28;20032;-75
2021/12/02 08:43:24;;;;;;;9.85;1.58;;;4.70;99.90;;;;;;5116463;28;20027;-71
2021/12/02 08:45:49;;;;;;;5.40;1.30;;;4.70;99.90;;;;;;5099340;28;20019;-73
2021/12/02 08:48:15;;;;;;;10.43;2.72;;;4.80;99.90;;;;;;5117264;28;20383;-74
2021/12/02 08:50:41;;;;;;;9.95;1.48;;;4.80;99.90;;;;;;5117596;28;20028;-71
2021/12/02 08:53:09;;;;;;;4.18;1.30;;;4.70;99.90;;;;;;5117592;28;20036;-72
2021/12/02 08:55:35;;;;;;;8.45;1.88;;;4.70;99.90;;;;;;5117520;28;20115;-74
2021/12/02 08:58:04;;;;;;;8.20;1.83;;;4.70;99.90;;;;;;5117491;28;20077;-71
2021/12/02 09:00:35;;;;;;;7.50;1.70;;;4.70;99.90;;;;;;5117455;28;20020;-71
2021/12/02 09:03:03;;;;;;;18.75;4.15;;;4.60;99.90;;;;;;5099115;28;20073;-73
2021/12/02 09:05:29;;;;;;;10.88;2.97;;;4.60;99.90;;;;;;5117698;28;20023;-72
2021/12/02 09:07:55;;;;;;;14.25;2.42;;;4.60;99.90;;;;;;5117785;28;20468;-75
2021/12/02 09:10:21;;;;;;;49.47;15.13;;;4.60;99.90;;;;;;5117404;28;20026;-74
2021/12/02 09:12:48;;;;;;;22.35;6.68;;;4.70;99.90;;;;;;5116846;28;20031;-74
2021/12/02 09:15:14;;;;;;;20.50;4.20;;;4.80;99.90;;;;;;5117161;28;20039;-74
2021/12/02 09:17:40;;;;;;;14.07;3.90;;;5.10;99.90;;;;;;5116690;28;20030;-73
2021/12/02 09:20:09;;;;;;;7.68;1.70;;;5.30;99.90;;;;;;5117260;28;20029;-75
2021/12/02 09:22:35;;;;;;;6.53;1.33;;;5.30;99.90;;;;;;5116762;28;20493;-72
2021/12/02 09:25:01;;;;;;;11.27;1.13;;;5.30;99.90;;;;;;5116771;28;20484;-72
2021/12/02 09:27:27;;;;;;;3.35;1.02;;;5.20;99.90;;;;;;5116703;28;20063;-74
2021/12/02 09:29:53;;;;;;;3.50;0.88;;;5.20;99.90;;;;;;5117352;28;20055;-73
2021/12/02 09:32:18;;;;;;;11.02;0.80;;;5.10;99.90;;;;;;5116720;28;20016;-74
2021/12/02 09:34:44;;;;;;;3.25;0.50;;;5.00;99.90;;;;;;5116711;28;20028;-72
2021/12/02 09:37:10;;;;;;;1.45;0.60;;;4.90;99.90;;;;;;5117019;28;20082;-76
2021/12/02 09:39:36;;;;;;;5.63;0.95;;;4.90;99.90;;;;;;5116426;28;20535;-75
2021/12/02 09:42:05;;;;;;;2.13;0.85;;;4.80;99.90;;;;;;5116364;28;20467;-74
2021/12/02 09:44:31;;;;;;;5.15;0.93;;;4.80;99.90;;;;;;5116341;28;20020;-73
2021/12/02 09:46:57;;;;;;;3.72;0.80;;;4.70;99.90;;;;;;5116047;28;20387;-73
2021/12/02 09:49:24;;;;;;;3.63;1.00;;;4.70;99.90;;;;;;5116671;28;20031;-73
2021/12/02 09:54:40;;;;;;;4.28;1.08;;;4.60;99.90;;;;;;5116192;28;20459;-75
2021/12/02 09:57:11;;;;;;;4.32;1.05;;;4.70;99.90;;;;;;5115846;28;20085;-72
2021/12/02 10:02:11;;;;;;;;;;;4.70;99.90;;;;;;5113650;28;20046;-72
2021/12/02 10:04:43;;;;;;;3.25;0.60;;;4.60;99.90;;;;;;5115351;28;19957;-73
2021/12/02 10:07:13;;;;;;;;;;;4.50;99.90;;;;;;5097938;28;20024;-72
2021/12/02 10:09:49;;;;;;;5.50;0.85;;;4.40;99.90;;;;;;5115342;28;19991;-72
2021/12/02 10:12:17;;;;;;;5.65;1.00;;;4.40;99.90;;;;;;5115691;27;20020;-73
2021/12/02 10:14:51;;;;;;;4.97;1.40;;;4.30;99.90;;;;;;5097032;28;20871;-74
2021/12/02 10:17:33;;;;;;;1.70;0.68;;;4.30;99.90;;;;;;5115420;27;20111;-72
2021/12/02 10:20:32;;;;;;;4.18;1.05;;;4.30;99.90;;;;;;5115295;28;20020;-75
2021/12/02 10:25:55;;;;;;;5.03;0.70;;;4.40;99.90;;;;;;5106301;28;20110;-73
2021/12/02 10:28:21;;;;;;;4.28;1.50;;;4.40;99.90;;;;;;5114904;28;20035;-73
2021/12/02 10:30:56;;;;;;;3.03;1.00;;;4.50;99.90;;;;;;5115431;27;20019;-73
2021/12/02 10:33:40;;;;;;;3.50;1.08;;;4.60;99.90;;;;;;5115279;27;20368;-74
2021/12/02 10:36:32;;;;;;;4.93;1.27;;;4.70;99.90;;;;;;5115723;28;20039;-71
2021/12/02 10:39:22;;;;;;;4.18;1.25;;;4.70;99.90;;;;;;5096830;28;20487;-73
2021/12/02 10:42:01;;;;;;;6.95;1.40;;;4.90;99.90;;;;;;5103000;28;20039;-75
2021/12/02 10:44:31;;;;;;;5.55;2.13;;;4.90;99.90;;;;;;5096903;28;20030;-75
2021/12/02 10:47:00;;;;;;;10.52;2.00;;;5.00;99.90;;;;;;5115146;28;20382;-75
2021/12/02 10:49:28;;;;;;;7.03;1.63;;;5.00;99.90;;;;;;5115449;28;20023;-75
2021/12/02 10:51:58;;;;;;;4.43;1.80;;;5.10;99.90;;;;;;5115077;28;20019;-73
2021/12/02 10:54:26;;;;;;;6.32;1.70;;;5.10;99.90;;;;;;5114847;28;20046;-72
2021/12/02 10:57:09;;;;;;;4.03;1.70;;;5.10;99.90;;;;;;5113312;28;20112;-73
2021/12/02 10:59:58;;;;;;;7.18;1.83;;;5.20;99.90;;;;;;5111662;28;20029;-74
2021/12/02 11:02:34;;;;;;;3.70;1.40;;;5.30;99.90;;;;;;5114617;28;20043;-75
2021/12/02 11:05:07;;;;;;;3.20;1.60;;;5.30;99.90;;;;;;5114700;28;20030;-72
2021/12/02 11:07:41;;;;;;;7.38;2.38;;;5.30;99.90;;;;;;5115312;28;20034;-74
2021/12/02 11:10:11;;;;;;;6.65;1.50;;;5.30;99.90;;;;;;5113483;28;20084;-72
2021/12/02 11:12:40;;;;;;;4.60;1.45;;;5.30;99.90;;;;;;5114594;28;20031;-74
2021/12/02 11:15:16;;;;;;;6.45;1.77;;;5.30;99.90;;;;;;5114564;28;20497;-75
2021/12/02 11:17:47;;;;;;;6.15;1.75;;;5.20;99.90;;;;;;5112052;27;20394;-74
2021/12/02 11:20:37;;;;;;;10.32;1.92;;;5.20;99.90;;;;;;5114343;28;20086;-74
2021/12/02 11:23:11;;;;;;;4.40;1.58;;;5.10;99.90;;;;;;5101659;28;20028;-74
2021/12/02 11:25:52;;;;;;;6.97;1.83;;;5.10;99.90;;;;;;5114131;28;20043;-73
2021/12/02 11:28:18;;;;;;;4.28;2.00;;;5.20;99.90;;;;;;5114423;28;20024;-72
2021/12/02 11:30:44;;;;;;;7.63;2.15;;;5.30;99.90;;;;;;5114031;28;20043;-73
2021/12/02 11:33:10;;;;;;;3.72;1.42;;;5.80;99.90;;;;;;5114064;28;20035;-73
2021/12/02 11:35:42;;;;;;;2.28;1.10;;;6.60;99.90;;;;;;5114426;28;20027;-73
2021/12/02 11:38:24;;;;;;;2.15;1.13;;;7.40;99.90;;;;;;5114810;28;20106;-72
2021/12/02 11:40:52;;;;;;;7.88;1.08;;;8.00;99.90;;;;;;5114478;28;20053;-76
2021/12/02 11:43:26;;;;;;;6.43;1.30;;;8.30;99.90;;;;;;5113984;28;20028;-73
2021/12/02 11:45:54;;;;;;;5.90;1.30;;;8.30;99.90;;;;;;5114133;28;20467;-71
2021/12/02 11:48:23;;;;;;;6.18;1.40;;;8.30;99.90;;;;;;5114151;28;20019;-75
2021/12/02 11:50:52;;;;;;;4.78;1.30;;;8.30;99.90;;;;;;5114140;28;20024;-73
2021/12/02 11:53:21;;;;;;;8.27;1.65;;;8.50;99.90;;;;;;5114241;28;20039;-75
2021/12/02 11:55:50;;;;;;;5.70;1.50;;;8.90;99.90;;;;;;5113803;28;20023;-72
2021/12/02 11:58:15;;;;;;;6.93;1.63;;;9.40;99.90;;;;;;5095750;28;20560;-71
2021/12/02 12:00:44;;;;;;;9.05;1.80;;;10.00;99.90;;;;;;5095673;28;20035;-72
2021/12/02 12:03:34;;;;;;;4.50;1.63;;;10.40;99.90;;;;;;5095888;28;20028;-73
2021/12/02 12:06:09;;;;;;;5.78;2.05;;;10.40;99.90;;;;;;5099169;28;20040;-74
2021/12/02 12:08:39;;;;;;;7.95;2.10;;;10.30;99.90;;;;;;5113851;28;20019;-73
2021/12/02 12:11:25;;;;;;;8.35;1.77;;;10.00;99.90;;;;;;5113824;28;20451;-72
2021/12/02 12:13:59;;;;;;;7.78;1.98;;;9.70;99.90;;;;;;5113663;28;20036;-72
2021/12/02 12:16:31;;;;;;;11.15;2.30;;;9.50;99.90;;;;;;5112735;28;20479;-72
2021/12/02 12:19:28;;;;;;;7.53;1.85;;;9.20;99.90;;;;;;5113178;28;20019;-71
2021/12/02 12:21:58;;;;;;;10.13;2.05;;;9.10;99.90;;;;;;5113709;28;20024;-74
2021/12/02 12:24:41;;;;;;;11.98;2.30;;;9.20;99.90;;;;;;5113542;28;20110;-73
2021/12/02 12:27:27;;;;;;;9.02;2.28;;;9.60;99.90;;;;;;5112971;28;20028;-72
2021/12/02 12:30:09;;;;;;;8.32;2.28;;;10.10;99.90;;;;;;5095313;28;20387;-72
2021/12/02 12:32:42;;;;;;;12.23;2.30;;;10.70;99.90;;;;;;5113852;28;20049;-73
2021/12/02 12:35:37;;;;;;;9.20;1.98;;;10.90;99.90;;;;;;5113908;28;20035;-72
2021/12/02 12:37:57;;;;;;;7.68;1.92;;;10.90;99.90;;;;;;5113312;28;20040;-72
2021/12/02 12:40:40;;;;;;;14.38;1.95;;;10.70;99.90;;;;;;5113645;28;20023;-72
2021/12/02 12:43:06;;;;;;;;;;;10.30;99.90;;;;;;5113485;28;20153;-74
2021/12/02 12:45:41;;;;;;;10.02;2.22;;;10.00;99.90;;;;;;5094916;28;19904;-74
2021/12/02 12:48:17;;;;;;;8.50;1.45;;;9.60;99.90;;;;;;5113252;28;20028;-71
2021/12/02 12:50:45;;;;;;;6.22;1.35;;;9.10;99.90;;;;;;5113569;28;20031;-71
2021/12/02 12:53:16;;;;;;;1.85;1.05;;;8.80;99.90;;;;;;5113397;28;20118;-73
2021/12/02 12:56:07;;;;;;;0.70;0.40;;;8.40;99.90;;;;;;5113361;28;20276;-74
2021/12/02 12:58:36;;;;;;;5.00;1.02;;;7.90;99.90;;;;;;5094929;28;20047;-75
2021/12/02 13:01:26;;;;;;;2.55;0.38;;;7.50;99.90;;;;;;5095154;28;20039;-73
2021/12/02 13:04:04;;;;;;;0.93;0.40;;;7.30;99.90;;;;;;5094805;28;20027;-75
2021/12/02 13:06:33;;;;;;;0.65;0.40;;;7.10;99.90;;;;;;5113366;28;20023;-73
2021/12/02 13:09:05;;;;;;;2.35;1.08;;;7.00;99.90;;;;;;5113217;28;20042;-72
2021/12/02 13:11:33;;;;;;;2.75;0.60;;;6.90;99.90;;;;;;5095023;28;20077;-74
2021/12/02 13:14:01;;;;;;;1.65;0.50;;;6.70;99.90;;;;;;5113210;28;20571;-70
2021/12/02 13:16:30;;;;;;;3.08;0.60;;;6.60;99.90;;;;;;5113081;28;20460;-73
2021/12/02 13:19:14;;;;;;;1.20;0.30;;;6.50;99.90;;;;;;5113229;28;20159;-73
2021/12/02 13:21:42;;;;;;;2.10;0.73;;;6.50;99.90;;;;;;5113136;28;20015;-75
2021/12/02 13:24:21;;;;;;;6.53;0.95;;;6.50;99.90;;;;;;5113225;28;20020;-73
2021/12/02 13:26:52;;;;;;;7.57;1.00;;;6.40;99.90;;;;;;5112890;28;20217;-71
2021/12/02 13:29:21;;;;;;;4.28;0.80;;;6.40;99.90;;;;;;5097770;28;20062;-71